AUA185 LOWW-EDDM
Flight info
| Callsign | AUA185 |
|---|---|
| Flight time | 0h 42m |
| Altitude | 28000 |
| Route | SOVIL1C/29 SOVIL DCT SITNI DCT BAGSI DCT MATIG DCT AMADI Q113 NAPSA NAPSA4A |
| Aircraft | A321/M-SDE3FGHIRWY/LB1 |
Departure
| Time | 2026-05-01 12:07 |
|---|---|
| Airport | Vienna International Airport (LOWW) |
Arrival
| Time | 2026-05-01 12:50 |
|---|---|
| Airport | Munich Airport (EDDM) |
| Time | Latitude | Longitude | Altitude | Speed | Heading |
|---|---|---|---|---|---|
| 2026-05-01 11:54 | 48.11866 | 16.56878 | 608 ft | 0 kts | 206° |
| 2026-05-01 12:00 | 48.11889 | 16.56895 | 608 ft | 2 kts | 206° |
| 2026-05-01 12:01 | 48.11901 | 16.56904 | 608 ft | 1 kts | 206° |
| 2026-05-01 12:01 | 48.11911 | 16.56911 | 608 ft | 2 kts | 187° |
| 2026-05-01 12:01 | 48.11926 | 16.56907 | 608 ft | 2 kts | 152° |
| 2026-05-01 12:01 | 48.11937 | 16.56893 | 608 ft | 0 kts | 121° |
| 2026-05-01 12:02 | 48.11939 | 16.56885 | 608 ft | 1 kts | 114° |
| 2026-05-01 12:02 | 48.11940 | 16.56882 | 608 ft | 0 kts | 116° |
| 2026-05-01 12:04 | 48.11926 | 16.56923 | 608 ft | 9 kts | 118° |
| 2026-05-01 12:04 | 48.11885 | 16.57043 | 608 ft | 14 kts | 116° |
| 2026-05-01 12:04 | 48.11853 | 16.57189 | 608 ft | 15 kts | 98° |
| 2026-05-01 12:04 | 48.11809 | 16.57337 | 608 ft | 15 kts | 135° |
| 2026-05-01 12:05 | 48.11706 | 16.57390 | 608 ft | 16 kts | 164° |
| 2026-05-01 12:05 | 48.11478 | 16.57442 | 608 ft | 17 kts | 197° |
| 2026-05-01 12:05 | 48.11367 | 16.57368 | 608 ft | 17 kts | 206° |
| 2026-05-01 12:06 | 48.11253 | 16.57287 | 608 ft | 18 kts | 205° |
| 2026-05-01 12:06 | 48.11136 | 16.57205 | 608 ft | 18 kts | 205° |
| 2026-05-01 12:06 | 48.11057 | 16.57077 | 608 ft | 14 kts | 286° |
| 2026-05-01 12:06 | 48.11108 | 16.56939 | 608 ft | 19 kts | 296° |
| 2026-05-01 12:07 | 48.11286 | 16.56393 | 609 ft | 98 kts | 296° |
| 2026-05-01 12:07 | 48.11682 | 16.55159 | 651 ft | 160 kts | 297° |
| 2026-05-01 12:07 | 48.12173 | 16.53598 | 1317 ft | 167 kts | 294° |
| 2026-05-01 12:07 | 48.12222 | 16.51982 | 2235 ft | 164 kts | 253° |
| 2026-05-01 12:08 | 48.11669 | 16.50478 | 2870 ft | 173 kts | 238° |
| 2026-05-01 12:08 | 48.10969 | 16.48944 | 3365 ft | 188 kts | 240° |
| 2026-05-01 12:08 | 48.10283 | 16.47184 | 3864 ft | 205 kts | 244° |
| 2026-05-01 12:08 | 48.09552 | 16.45241 | 4360 ft | 224 kts | 241° |
| 2026-05-01 12:09 | 48.08624 | 16.43221 | 4815 ft | 249 kts | 235° |
| 2026-05-01 12:09 | 48.07557 | 16.41095 | 5378 ft | 268 kts | 235° |
| 2026-05-01 12:09 | 48.06404 | 16.38819 | 6059 ft | 282 kts | 234° |
| 2026-05-01 12:09 | 48.05210 | 16.36447 | 6944 ft | 287 kts | 235° |
| 2026-05-01 12:10 | 48.04046 | 16.34042 | 7799 ft | 292 kts | 239° |
| 2026-05-01 12:10 | 48.03230 | 16.28177 | 9473 ft | 296 kts | 275° |
| 2026-05-01 12:10 | 48.03307 | 16.25114 | 10275 ft | 302 kts | 276° |
| 2026-05-01 12:11 | 48.03493 | 16.18570 | 11268 ft | 335 kts | 276° |
| 2026-05-01 12:11 | 48.03575 | 16.15008 | 11834 ft | 347 kts | 276° |
| 2026-05-01 12:11 | 48.03644 | 16.11402 | 12604 ft | 352 kts | 276° |
| 2026-05-01 12:12 | 48.03706 | 16.07737 | 13347 ft | 357 kts | 276° |
| 2026-05-01 12:12 | 48.03769 | 16.04032 | 14097 ft | 361 kts | 276° |
| 2026-05-01 12:12 | 48.03830 | 16.00287 | 14848 ft | 365 kts | 276° |
| 2026-05-01 12:12 | 48.03893 | 15.96469 | 15485 ft | 372 kts | 276° |
| 2026-05-01 12:13 | 48.03954 | 15.92591 | 16157 ft | 377 kts | 276° |
| 2026-05-01 12:13 | 48.04013 | 15.88647 | 16829 ft | 382 kts | 276° |
| 2026-05-01 12:13 | 48.04072 | 15.84661 | 17464 ft | 387 kts | 276° |
| 2026-05-01 12:13 | 48.04129 | 15.80653 | 18064 ft | 393 kts | 276° |
| 2026-05-01 12:14 | 48.04185 | 15.76579 | 18677 ft | 397 kts | 276° |
| 2026-05-01 12:14 | 48.04240 | 15.72437 | 19294 ft | 402 kts | 276° |
| 2026-05-01 12:14 | 48.04293 | 15.68276 | 19926 ft | 405 kts | 276° |
| 2026-05-01 12:14 | 48.04347 | 15.64020 | 20534 ft | 409 kts | 276° |
| 2026-05-01 12:15 | 48.04400 | 15.59776 | 21118 ft | 413 kts | 276° |
| 2026-05-01 12:15 | 48.04451 | 15.55485 | 21732 ft | 416 kts | 276° |
| 2026-05-01 12:15 | 48.04501 | 15.51160 | 22322 ft | 420 kts | 276° |
| 2026-05-01 12:15 | 48.04547 | 15.46814 | 23024 ft | 420 kts | 276° |
| 2026-05-01 12:16 | 48.04592 | 15.42503 | 23791 ft | 417 kts | 276° |
| 2026-05-01 12:16 | 48.04636 | 15.38188 | 24542 ft | 416 kts | 276° |
| 2026-05-01 12:16 | 48.04694 | 15.33886 | 25258 ft | 414 kts | 276° |
| 2026-05-01 12:16 | 48.04767 | 15.29622 | 25913 ft | 414 kts | 276° |
| 2026-05-01 12:17 | 48.04841 | 15.25310 | 26580 ft | 413 kts | 277° |
| 2026-05-01 12:17 | 48.04910 | 15.21069 | 27213 ft | 413 kts | 277° |
| 2026-05-01 12:17 | 48.04978 | 15.16814 | 27798 ft | 413 kts | 277° |
| 2026-05-01 12:17 | 48.05044 | 15.12487 | 28234 ft | 416 kts | 277° |
| 2026-05-01 12:18 | 48.05168 | 15.03844 | 28331 ft | 418 kts | 277° |
| 2026-05-01 12:18 | 48.05284 | 14.95234 | 28328 ft | 418 kts | 276° |
| 2026-05-01 12:19 | 48.05391 | 14.86532 | 28327 ft | 418 kts | 276° |
| 2026-05-01 12:19 | 48.05485 | 14.77885 | 28325 ft | 418 kts | 276° |
| 2026-05-01 12:20 | 48.05555 | 14.69260 | 28324 ft | 418 kts | 276° |
| 2026-05-01 12:20 | 48.05618 | 14.60592 | 28314 ft | 417 kts | 276° |
| 2026-05-01 12:21 | 48.05673 | 14.51941 | 28309 ft | 418 kts | 276° |
| 2026-05-01 12:21 | 48.05722 | 14.43285 | 28319 ft | 417 kts | 276° |
| 2026-05-01 12:22 | 48.05763 | 14.34632 | 28315 ft | 416 kts | 275° |
| 2026-05-01 12:22 | 48.05803 | 14.26017 | 28320 ft | 417 kts | 275° |
| 2026-05-01 12:23 | 48.05837 | 14.17376 | 28329 ft | 417 kts | 275° |
| 2026-05-01 12:23 | 48.05863 | 14.08738 | 28332 ft | 416 kts | 275° |
| 2026-05-01 12:24 | 48.05881 | 14.00111 | 28336 ft | 416 kts | 275° |
| 2026-05-01 12:24 | 48.05893 | 13.91516 | 28331 ft | 416 kts | 275° |
| 2026-05-01 12:25 | 48.05898 | 13.78578 | 28326 ft | 415 kts | 275° |
| 2026-05-01 12:26 | 48.05892 | 13.69959 | 28319 ft | 415 kts | 275° |
| 2026-05-01 12:26 | 48.05872 | 13.57126 | 28309 ft | 414 kts | 275° |
| 2026-05-01 12:27 | 48.05942 | 13.52801 | 28092 ft | 413 kts | 278° |
| 2026-05-01 12:27 | 48.06382 | 13.44376 | 27526 ft | 407 kts | 280° |
| 2026-05-01 12:28 | 48.06846 | 13.36015 | 26665 ft | 403 kts | 280° |
| 2026-05-01 12:28 | 48.07071 | 13.31858 | 26107 ft | 403 kts | 279° |
| 2026-05-01 12:28 | 48.07513 | 13.23517 | 24893 ft | 403 kts | 278° |
| 2026-05-01 12:29 | 48.07729 | 13.19340 | 24245 ft | 403 kts | 279° |
| 2026-05-01 12:29 | 48.07941 | 13.15234 | 23622 ft | 403 kts | 278° |
| 2026-05-01 12:29 | 48.08369 | 13.06873 | 22305 ft | 405 kts | 278° |
| 2026-05-01 12:30 | 48.08810 | 12.98233 | 21216 ft | 440 kts | 277° |
| 2026-05-01 12:30 | 48.09034 | 12.93693 | 20757 ft | 430 kts | 277° |
| 2026-05-01 12:30 | 48.09331 | 12.89371 | 20206 ft | 422 kts | 281° |
| 2026-05-01 12:31 | 48.09730 | 12.85026 | 19626 ft | 417 kts | 281° |
| 2026-05-01 12:31 | 48.10135 | 12.80808 | 19088 ft | 411 kts | 281° |
| 2026-05-01 12:31 | 48.10538 | 12.76615 | 18554 ft | 406 kts | 281° |
| 2026-05-01 12:31 | 48.10931 | 12.72481 | 18028 ft | 401 kts | 281° |
| 2026-05-01 12:32 | 48.11319 | 12.68378 | 17510 ft | 397 kts | 281° |
| 2026-05-01 12:32 | 48.12071 | 12.60323 | 16498 ft | 389 kts | 281° |
| 2026-05-01 12:32 | 48.12439 | 12.56345 | 15998 ft | 386 kts | 281° |
| 2026-05-01 12:33 | 48.12801 | 12.52399 | 15490 ft | 382 kts | 281° |
| 2026-05-01 12:33 | 48.13163 | 12.48455 | 14981 ft | 379 kts | 281° |
| 2026-05-01 12:33 | 48.13515 | 12.44583 | 14478 ft | 375 kts | 281° |
| 2026-05-01 12:33 | 48.13862 | 12.40769 | 14001 ft | 371 kts | 281° |
| 2026-05-01 12:34 | 48.14205 | 12.36977 | 13635 ft | 363 kts | 281° |
| 2026-05-01 12:34 | 48.14532 | 12.33266 | 13233 ft | 356 kts | 279° |
| 2026-05-01 12:34 | 48.14799 | 12.29632 | 13231 ft | 350 kts | 278° |
| 2026-05-01 12:34 | 48.15045 | 12.26046 | 13257 ft | 351 kts | 278° |
| 2026-05-01 12:35 | 48.15293 | 12.22410 | 13281 ft | 351 kts | 278° |
| 2026-05-01 12:35 | 48.15541 | 12.18779 | 13299 ft | 351 kts | 278° |
| 2026-05-01 12:35 | 48.15787 | 12.15171 | 13303 ft | 350 kts | 278° |
| 2026-05-01 12:35 | 48.16037 | 12.11538 | 13307 ft | 351 kts | 278° |
| 2026-05-01 12:36 | 48.16285 | 12.07901 | 13305 ft | 350 kts | 278° |
| 2026-05-01 12:36 | 48.16530 | 12.04308 | 13301 ft | 350 kts | 278° |
| 2026-05-01 12:36 | 48.16775 | 12.00697 | 13303 ft | 350 kts | 278° |
| 2026-05-01 12:36 | 48.17022 | 11.97031 | 13296 ft | 350 kts | 278° |
| 2026-05-01 12:37 | 48.17263 | 11.93432 | 13288 ft | 350 kts | 278° |
| 2026-05-01 12:37 | 48.17505 | 11.89813 | 13288 ft | 350 kts | 278° |
| 2026-05-01 12:37 | 48.17745 | 11.86169 | 13287 ft | 351 kts | 277° |
| 2026-05-01 12:37 | 48.17564 | 11.82573 | 13272 ft | 354 kts | 254° |
| 2026-05-01 12:38 | 48.16447 | 11.79248 | 13289 ft | 355 kts | 239° |
| 2026-05-01 12:38 | 48.15385 | 11.75972 | 13179 ft | 355 kts | 253° |
| 2026-05-01 12:38 | 48.15070 | 11.72351 | 12644 ft | 351 kts | 273° |
| 2026-05-01 12:38 | 48.15122 | 11.68684 | 12121 ft | 350 kts | 271° |
| 2026-05-01 12:39 | 48.15031 | 11.65088 | 11617 ft | 347 kts | 269° |
| 2026-05-01 12:39 | 48.14911 | 11.61502 | 11143 ft | 343 kts | 268° |
| 2026-05-01 12:39 | 48.14802 | 11.57973 | 10773 ft | 336 kts | 269° |
| 2026-05-01 12:39 | 48.14708 | 11.54536 | 10576 ft | 323 kts | 269° |
| 2026-05-01 12:40 | 48.14626 | 11.51245 | 10399 ft | 311 kts | 269° |
| 2026-05-01 12:40 | 48.14552 | 11.48082 | 10219 ft | 301 kts | 269° |
| 2026-05-01 12:40 | 48.14480 | 11.44976 | 9836 ft | 299 kts | 269° |
| 2026-05-01 12:40 | 48.14411 | 11.41913 | 9455 ft | 297 kts | 269° |
| 2026-05-01 12:41 | 48.14339 | 11.38795 | 9207 ft | 298 kts | 269° |
| 2026-05-01 12:41 | 48.14348 | 11.35714 | 8979 ft | 298 kts | 279° |
| 2026-05-01 12:41 | 48.15081 | 11.32886 | 8680 ft | 288 kts | 307° |
| 2026-05-01 12:41 | 48.16513 | 11.30929 | 8436 ft | 276 kts | 334° |
| 2026-05-01 12:42 | 48.18321 | 11.30196 | 8216 ft | 268 kts | 2° |
| 2026-05-01 12:42 | 48.20137 | 11.30598 | 7996 ft | 265 kts | 14° |
| 2026-05-01 12:42 | 48.21953 | 11.31041 | 7794 ft | 265 kts | 9° |
| 2026-05-01 12:42 | 48.23799 | 11.31216 | 7571 ft | 262 kts | 5° |
| 2026-05-01 12:43 | 48.25548 | 11.31551 | 7337 ft | 250 kts | 23° |
| 2026-05-01 12:43 | 48.26970 | 11.32917 | 7087 ft | 238 kts | 49° |
| 2026-05-01 12:43 | 48.27879 | 11.34921 | 6812 ft | 231 kts | 63° |
| 2026-05-01 12:43 | 48.28647 | 11.37016 | 6519 ft | 228 kts | 63° |
| 2026-05-01 12:44 | 48.29409 | 11.39086 | 6217 ft | 226 kts | 63° |
| 2026-05-01 12:44 | 48.30177 | 11.41140 | 5925 ft | 225 kts | 62° |
| 2026-05-01 12:44 | 48.31531 | 11.45320 | 5337 ft | 221 kts | 74° |
| 2026-05-01 12:45 | 48.32136 | 11.49826 | 4901 ft | 219 kts | 82° |
| 2026-05-01 12:45 | 48.32340 | 11.52054 | 4530 ft | 220 kts | 83° |
| 2026-05-01 12:45 | 48.32519 | 11.54339 | 4170 ft | 215 kts | 83° |
| 2026-05-01 12:46 | 48.32677 | 11.56494 | 3850 ft | 205 kts | 83° |
| 2026-05-01 12:46 | 48.32829 | 11.58569 | 3575 ft | 193 kts | 83° |
| 2026-05-01 12:46 | 48.32968 | 11.60461 | 3390 ft | 170 kts | 83° |
| 2026-05-01 12:46 | 48.33091 | 11.62130 | 3206 ft | 153 kts | 83° |
| 2026-05-01 12:47 | 48.33203 | 11.63626 | 2984 ft | 139 kts | 83° |
| 2026-05-01 12:47 | 48.33315 | 11.65003 | 2757 ft | 126 kts | 84° |
| 2026-05-01 12:47 | 48.33407 | 11.66327 | 2577 ft | 127 kts | 84° |
| 2026-05-01 12:47 | 48.33505 | 11.67646 | 2424 ft | 126 kts | 85° |
| 2026-05-01 12:48 | 48.33593 | 11.68959 | 2284 ft | 127 kts | 84° |
| 2026-05-01 12:48 | 48.33722 | 11.70260 | 2113 ft | 125 kts | 84° |
| 2026-05-01 12:48 | 48.33792 | 11.71568 | 1960 ft | 128 kts | 87° |
| 2026-05-01 12:48 | 48.33884 | 11.72891 | 1792 ft | 126 kts | 86° |
| 2026-05-01 12:49 | 48.33991 | 11.74202 | 1622 ft | 125 kts | 84° |
| 2026-05-01 12:49 | 48.34092 | 11.75496 | 1490 ft | 120 kts | 84° |
| 2026-05-01 12:49 | 48.34177 | 11.76577 | 1480 ft | 84 kts | 83° |
| 2026-05-01 12:49 | 48.34240 | 11.77360 | 1480 ft | 66 kts | 86° |
| 2026-05-01 12:50 | 48.34285 | 11.77984 | 1480 ft | 55 kts | 83° |
| 2026-05-01 12:50 | 48.34331 | 11.78532 | 1480 ft | 49 kts | 85° |
| 2026-05-01 12:50 | 48.34384 | 11.79012 | 1478 ft | 44 kts | 67° |
| 2026-05-01 12:50 | 48.34535 | 11.79364 | 1477 ft | 29 kts | 53° |
| 2026-05-01 12:51 | 48.34620 | 11.79534 | 1477 ft | 17 kts | 55° |
| 2026-05-01 12:51 | 48.34693 | 11.79684 | 1477 ft | 17 kts | 41° |
| 2026-05-01 12:51 | 48.34819 | 11.79701 | 1477 ft | 0 kts | 353° |
| 2026-05-01 12:52 | 48.34841 | 11.79697 | 1477 ft | 3 kts | 353° |
| 2026-05-01 12:52 | 48.34873 | 11.79691 | 1477 ft | 6 kts | 353° |
| 2026-05-01 12:53 | 48.35007 | 11.79667 | 1477 ft | 11 kts | 355° |
| 2026-05-01 12:53 | 48.35074 | 11.79738 | 1476 ft | 15 kts | 82° |
| 2026-05-01 12:53 | 48.35087 | 11.79915 | 1472 ft | 18 kts | 83° |
| 2026-05-01 12:54 | 48.35102 | 11.80107 | 1472 ft | 18 kts | 83° |
| 2026-05-01 12:54 | 48.35252 | 11.80210 | 1472 ft | 14 kts | 354° |
| 2026-05-01 12:54 | 48.35357 | 11.80194 | 1472 ft | 15 kts | 352° |
| 2026-05-01 12:55 | 48.35571 | 11.80144 | 1472 ft | 11 kts | 352° |
| 2026-05-01 12:55 | 48.35599 | 11.80138 | 1472 ft | 4 kts | 350° |
| 2026-05-01 12:55 | 48.35630 | 11.80121 | 1472 ft | 5 kts | 319° |
| 2026-05-01 12:56 | 48.35637 | 11.80061 | 1472 ft | 6 kts | 264° |
| 2026-05-01 12:56 | 48.35632 | 11.79996 | 1472 ft | 2 kts | 263° |
| 2026-05-01 12:56 | 48.35631 | 11.79977 | 1472 ft | 0 kts | 263° |
| 2026-05-01 12:56 | 48.35630 | 11.79976 | 1472 ft | 0 kts | 263° |